createdAt,value
2018-08-28T00:00:17.767Z,3.23
2018-08-28T00:02:47.358Z,3.97
2018-08-28T00:05:17.307Z,3.83
2018-08-28T00:07:46.799Z,5.30
2018-08-28T00:10:16.291Z,3.10
2018-08-28T00:12:45.827Z,3.50
2018-08-28T00:15:15.363Z,3.10
2018-08-28T00:17:44.951Z,4.20
2018-08-28T00:20:14.451Z,3.50
2018-08-28T00:22:44.027Z,3.83
2018-08-28T00:25:13.535Z,4.20
2018-08-28T00:27:43.091Z,3.97
2018-08-28T00:30:12.663Z,3.60
2018-08-28T00:32:42.186Z,3.73
2018-08-28T00:35:11.667Z,4.10
2018-08-28T00:37:41.228Z,3.40
2018-08-28T00:40:10.763Z,3.07
2018-08-28T00:42:40.323Z,4.60
2018-08-28T00:45:10.191Z,8.50
2018-08-28T00:47:39.743Z,5.00
2018-08-28T00:50:09.642Z,3.50
2018-08-28T00:52:39.188Z,4.00
2018-08-28T00:55:09.078Z,3.20
2018-08-28T00:57:38.605Z,3.57
2018-08-28T01:00:08.440Z,4.00
2018-08-28T01:02:38.202Z,4.60
2018-08-28T01:05:08.306Z,3.57
2018-08-28T01:07:38.011Z,3.80
2018-08-28T01:10:08.395Z,3.80
2018-08-28T01:12:37.965Z,3.10
2018-08-28T01:15:08.417Z,3.90
2018-08-28T01:17:37.980Z,4.30
2018-08-28T01:20:07.988Z,3.70
2018-08-28T01:22:37.499Z,4.50
2018-08-28T01:25:08.199Z,3.17
2018-08-28T01:27:37.702Z,4.20
2018-08-28T01:30:07.669Z,3.50
2018-08-28T01:32:37.208Z,4.53
2018-08-28T01:35:06.906Z,3.90
2018-08-28T01:37:36.670Z,4.17
2018-08-28T01:40:07.240Z,4.90
2018-08-28T01:42:36.944Z,4.03
2018-08-28T01:45:07.283Z,4.37
2018-08-28T01:47:36.943Z,4.30
2018-08-28T01:50:07.151Z,6.77
2018-08-28T01:52:36.677Z,3.53
2018-08-28T01:55:06.397Z,5.40
2018-08-28T01:57:36.030Z,4.43
2018-08-28T02:00:05.983Z,6.13
2018-08-28T02:02:35.653Z,5.33
2018-08-28T02:05:05.679Z,5.33
2018-08-28T02:07:35.450Z,8.33
2018-08-28T02:10:05.177Z,4.70
2018-08-28T02:12:35.961Z,6.00
2018-08-28T02:15:05.628Z,8.77
2018-08-28T02:17:35.342Z,4.40
2018-08-28T02:20:05.760Z,4.40
2018-08-28T02:22:35.491Z,4.87
2018-08-28T02:25:06.227Z,5.07
2018-08-28T02:27:36.043Z,3.83
2018-08-28T02:30:06.099Z,5.73
2018-08-28T02:32:35.823Z,5.60
2018-08-28T02:35:05.543Z,4.07
2018-08-28T02:37:35.268Z,4.07
2018-08-28T02:40:04.905Z,5.10
2018-08-28T02:42:34.572Z,6.80
2018-08-28T02:45:04.301Z,4.70
2018-08-28T02:47:33.915Z,4.90
2018-08-28T02:50:03.483Z,6.37
2018-08-28T02:52:33.215Z,5.30
2018-08-28T02:55:02.816Z,5.17
2018-08-28T02:57:32.595Z,4.53
2018-08-28T03:00:02.248Z,5.43
2018-08-28T03:02:31.879Z,5.40
2018-08-28T03:05:01.439Z,5.30
2018-08-28T03:07:31.124Z,6.30
2018-08-28T03:10:01.074Z,5.50
2018-08-28T03:12:31.058Z,4.70
2018-08-28T03:15:00.899Z,6.53
2018-08-28T03:17:30.479Z,3.70
2018-08-28T03:20:00.107Z,5.17
2018-08-28T03:22:29.907Z,5.57
2018-08-28T03:24:59.734Z,5.60
2018-08-28T03:27:29.504Z,6.40
2018-08-28T03:29:59.076Z,4.57
2018-08-28T03:32:28.730Z,6.77
2018-08-28T03:34:58.391Z,7.30
2018-08-28T03:37:28.069Z,4.87
2018-08-28T03:39:57.862Z,4.50
2018-08-28T03:42:27.605Z,6.17
2018-08-28T03:44:57.276Z,5.67
2018-08-28T03:47:27.228Z,6.23
2018-08-28T03:49:57.016Z,5.13
2018-08-28T03:52:26.887Z,4.90
2018-08-28T03:54:56.480Z,4.63
2018-08-28T03:57:26.147Z,4.83
2018-08-28T03:59:55.835Z,6.67
2018-08-28T04:02:25.562Z,6.33
2018-08-28T04:04:55.365Z,4.63
2018-08-28T04:07:24.984Z,5.33
2018-08-28T04:09:54.722Z,5.20
2018-08-28T04:12:24.683Z,5.00
2018-08-28T04:14:54.275Z,5.13
2018-08-28T04:17:23.941Z,4.40
2018-08-28T04:19:53.655Z,4.90
2018-08-28T04:22:23.228Z,4.60
2018-08-28T04:24:53.116Z,5.40
2018-08-28T04:27:22.854Z,6.20
2018-08-28T04:29:52.475Z,5.17
2018-08-28T04:32:22.166Z,5.03
2018-08-28T04:34:51.800Z,5.97
2018-08-28T04:37:21.378Z,4.57
2018-08-28T04:39:50.908Z,5.70
2018-08-28T04:42:20.400Z,4.10
2018-08-28T04:44:50.015Z,5.40
2018-08-28T04:47:19.725Z,4.07
2018-08-28T04:49:49.690Z,4.20
2018-08-28T04:52:19.428Z,4.97
2018-08-28T04:54:49.472Z,3.90
2018-08-28T04:57:19.264Z,4.30
2018-08-28T04:59:49.002Z,4.03
2018-08-28T05:02:18.679Z,4.67
2018-08-28T05:04:48.499Z,4.30
2018-08-28T05:07:18.307Z,5.27
2018-08-28T05:09:47.943Z,3.90
2018-08-28T05:12:17.643Z,6.27
2018-08-28T05:14:47.386Z,6.50
2018-08-28T05:17:16.959Z,5.57
2018-08-28T05:19:46.538Z,5.90
2018-08-28T05:22:16.163Z,6.80
2018-08-28T05:24:45.839Z,6.10
2018-08-28T05:27:15.635Z,7.13
2018-08-28T05:29:45.283Z,8.00
2018-08-28T05:32:15.024Z,6.60
2018-08-28T05:34:45.068Z,6.33
2018-08-28T05:37:14.750Z,5.83
2018-08-28T05:39:44.435Z,6.30
2018-08-28T05:42:14.091Z,6.63
2018-08-28T05:44:43.818Z,5.20
2018-08-28T05:47:13.374Z,6.20
2018-08-28T05:49:43.200Z,7.23
2018-08-28T05:52:12.901Z,6.50
2018-08-28T05:54:42.522Z,7.07
2018-08-28T05:57:12.266Z,7.20
2018-08-28T05:59:41.917Z,6.40
2018-08-28T06:02:11.887Z,8.03
2018-08-28T06:04:41.627Z,6.13
2018-08-28T06:07:11.327Z,7.73
2018-08-28T06:09:41.147Z,6.00
2018-08-28T06:12:10.844Z,6.83
2018-08-28T06:14:40.688Z,7.67
2018-08-28T06:17:10.568Z,7.27
2018-08-28T06:19:40.364Z,8.53
2018-08-28T06:22:10.279Z,6.50
2018-08-28T06:24:39.927Z,6.10
2018-08-28T06:27:09.632Z,7.43
2018-08-28T06:29:39.703Z,7.23
2018-08-28T06:32:09.499Z,6.27
2018-08-28T06:34:39.268Z,6.77
2018-08-28T06:37:09.247Z,7.80
2018-08-28T06:39:39.294Z,7.03
2018-08-28T06:42:08.972Z,6.33
2018-08-28T06:44:38.614Z,7.87
2018-08-28T06:47:08.529Z,7.90
2018-08-28T06:49:38.248Z,9.63
2018-08-28T06:52:08.057Z,9.40
2018-08-28T06:54:37.630Z,8.83
2018-08-28T06:57:07.612Z,8.50
2018-08-28T06:59:37.174Z,9.47
2018-08-28T07:02:07.327Z,10.00
2018-08-28T07:04:36.999Z,9.03
2018-08-28T07:07:07.394Z,10.97
2018-08-28T07:09:37.219Z,11.93
2018-08-28T07:12:06.858Z,11.20
2018-08-28T07:14:36.630Z,9.07
2018-08-28T07:17:06.895Z,9.27
2018-08-28T07:19:36.469Z,9.83
2018-08-28T07:22:06.627Z,10.90
2018-08-28T07:24:36.261Z,9.90
2018-08-28T07:27:06.571Z,9.20
2018-08-28T07:29:36.523Z,10.70
2018-08-28T07:32:06.695Z,11.87
2018-08-28T07:34:36.280Z,8.97
2018-08-28T07:37:06.169Z,11.10
2018-08-28T07:39:35.905Z,10.83
2018-08-28T07:42:05.632Z,10.77
2018-08-28T07:44:35.276Z,10.73
2018-08-28T07:47:05.327Z,9.83
2018-08-28T07:49:34.990Z,10.13
2018-08-28T07:52:04.738Z,10.93
2018-08-28T07:54:34.374Z,9.07
2018-08-28T07:57:03.963Z,8.40
2018-08-28T07:59:33.681Z,8.30
2018-08-28T08:02:03.497Z,9.50
2018-08-28T08:04:33.540Z,9.00
2018-08-28T08:07:03.103Z,8.47
2018-08-28T08:09:32.731Z,10.20
2018-08-28T08:12:02.424Z,8.30
2018-08-28T08:14:32.265Z,8.60
2018-08-28T08:17:01.872Z,7.90
2018-08-28T08:19:31.866Z,8.00
2018-08-28T08:22:01.837Z,10.87
2018-08-28T08:24:31.695Z,12.43
2018-08-28T08:27:01.391Z,10.50
2018-08-28T08:29:31.320Z,9.37
2018-08-28T08:32:00.999Z,7.27
2018-08-28T08:34:30.627Z,8.00
2018-08-28T08:37:00.348Z,9.20
2018-08-28T08:39:30.243Z,10.40
2018-08-28T08:42:00.026Z,8.70
2018-08-28T08:44:29.751Z,7.80
2018-08-28T08:46:59.303Z,8.80
2018-08-28T08:49:29.083Z,8.90
2018-08-28T08:51:59.147Z,9.03
2018-08-28T08:54:28.915Z,7.13
2018-08-28T08:56:59.156Z,6.20
2018-08-28T08:59:28.817Z,9.00
2018-08-28T09:01:58.548Z,8.80
2018-08-28T09:04:28.292Z,11.03
2018-08-28T09:06:58.435Z,9.27
2018-08-28T09:09:28.165Z,7.80
2018-08-28T09:11:57.879Z,9.20
2018-08-28T09:14:27.522Z,11.97
2018-08-28T09:16:57.051Z,8.50
2018-08-28T09:19:26.875Z,10.77
2018-08-28T09:21:56.547Z,11.43
2018-08-28T09:24:26.235Z,9.50
2018-08-28T09:26:55.776Z,10.00
2018-08-28T09:29:25.451Z,12.53
2018-08-28T09:31:55.372Z,8.70
2018-08-28T09:34:25.074Z,12.70
2018-08-28T09:36:54.683Z,11.33
2018-08-28T09:39:24.585Z,13.20
2018-08-28T09:41:54.244Z,10.10
2018-08-28T09:44:23.998Z,9.70
2018-08-28T09:46:53.511Z,9.00
2018-08-28T09:49:23.135Z,9.80
2018-08-28T09:51:52.831Z,8.30
2018-08-28T09:54:22.559Z,9.40
2018-08-28T09:56:52.638Z,10.40
2018-08-28T09:59:22.271Z,9.70
2018-08-28T10:01:51.959Z,10.90
2018-08-28T10:04:21.711Z,12.20
2018-08-28T10:06:51.500Z,10.17
2018-08-28T10:09:21.177Z,13.87
2018-08-28T10:11:50.990Z,8.67
2018-08-28T10:14:20.885Z,11.93
2018-08-28T10:16:50.453Z,12.10
2018-08-28T10:19:20.183Z,12.00
2018-08-28T10:21:49.731Z,9.90
2018-08-28T10:24:19.455Z,9.87
2018-08-28T10:26:49.076Z,8.57
2018-08-28T10:29:18.776Z,8.20
2018-08-28T10:31:48.434Z,10.30
2018-08-28T10:34:18.191Z,10.17
2018-08-28T10:36:47.927Z,10.90
2018-08-28T10:39:17.633Z,10.03
2018-08-28T10:41:47.451Z,10.13
2018-08-28T10:44:17.127Z,10.27
2018-08-28T10:46:47.331Z,10.48
2018-08-28T10:49:17.061Z,9.70
2018-08-28T10:51:46.936Z,9.97
2018-08-28T10:54:16.570Z,11.03
2018-08-28T10:56:46.439Z,10.70
2018-08-28T10:59:16.235Z,10.30
2018-08-28T11:01:45.915Z,9.10
2018-08-28T11:04:15.751Z,12.77
2018-08-28T11:06:45.426Z,9.10
2018-08-28T11:09:15.580Z,10.32
2018-08-28T11:11:45.146Z,9.23
2018-08-28T11:14:15.094Z,11.37
2018-08-28T11:16:44.883Z,9.70
2018-08-28T11:19:14.613Z,9.43
2018-08-28T11:21:44.407Z,9.00
2018-08-28T11:24:14.032Z,8.90
2018-08-28T11:26:43.612Z,9.30
2018-08-28T11:29:13.199Z,12.60
2018-08-28T11:31:42.720Z,10.20
2018-08-28T11:34:12.260Z,12.27
2018-08-28T11:36:41.934Z,12.10
2018-08-28T11:39:11.519Z,10.57
2018-08-28T11:41:41.039Z,13.07
2018-08-28T11:44:10.541Z,11.40
2018-08-28T11:46:40.190Z,11.80
2018-08-28T11:49:09.711Z,9.97
2018-08-28T11:51:39.268Z,10.03
2018-08-28T11:54:08.881Z,12.67
2018-08-28T11:56:38.505Z,10.43
2018-08-28T11:59:08.068Z,11.07
2018-08-28T12:01:37.625Z,10.53
2018-08-28T12:04:07.980Z,8.80
2018-08-28T12:06:37.615Z,10.83
2018-08-28T12:09:08.907Z,13.60
2018-08-28T12:11:38.481Z,11.30
2018-08-28T12:14:08.189Z,9.43
2018-08-28T12:16:37.843Z,10.13
2018-08-28T12:19:07.405Z,10.50
2018-08-28T12:21:37.062Z,9.57
2018-08-28T12:24:07.167Z,12.83
2018-08-28T12:26:36.905Z,11.23
2018-08-28T12:29:07.063Z,10.13
2018-08-28T12:31:36.893Z,11.63
2018-08-28T12:34:06.679Z,14.73
2018-08-28T12:36:36.377Z,10.77
2018-08-28T12:39:07.496Z,11.50
2018-08-28T12:41:37.175Z,10.67
2018-08-28T12:44:06.870Z,10.20
2018-08-28T12:46:36.705Z,8.40
2018-08-28T12:49:06.570Z,9.70
2018-08-28T12:51:36.100Z,8.97
2018-08-28T12:54:06.086Z,8.13
2018-08-28T12:56:35.740Z,9.70
2018-08-28T12:59:06.010Z,8.40
2018-08-28T13:01:35.738Z,15.13
2018-08-28T13:04:05.401Z,9.97
2018-08-28T13:06:34.961Z,9.90
2018-08-28T13:09:05.517Z,10.93
2018-08-28T13:11:35.091Z,10.30
2018-08-28T13:14:04.716Z,12.53
2018-08-28T13:16:34.706Z,11.17
2018-08-28T13:19:04.355Z,9.23
2018-08-28T13:21:34.025Z,10.07
2018-08-28T13:24:03.874Z,12.87
2018-08-28T13:26:33.677Z,10.47
2018-08-28T13:29:03.220Z,11.70
2018-08-28T13:31:32.867Z,11.73
2018-08-28T13:34:02.505Z,9.10
2018-08-28T13:36:32.075Z,13.37
2018-08-28T13:39:01.843Z,10.07
2018-08-28T13:41:31.689Z,9.20
2018-08-28T13:44:01.318Z,11.33
2018-08-28T13:46:31.029Z,9.70
2018-08-28T13:49:00.975Z,11.57
2018-08-28T13:51:30.760Z,8.83
2018-08-28T13:54:00.376Z,8.30
2018-08-28T13:56:30.372Z,10.00
2018-08-28T13:59:00.088Z,9.43
2018-08-28T14:01:30.298Z,11.40
2018-08-28T14:03:59.970Z,9.37
2018-08-28T14:06:29.598Z,9.20
2018-08-28T14:08:59.368Z,10.80
2018-08-28T14:11:29.267Z,10.00
2018-08-28T14:13:59.200Z,10.20
2018-08-28T14:16:28.829Z,9.37
2018-08-28T14:18:58.478Z,9.50
2018-08-28T14:21:28.088Z,8.03
2018-08-28T14:23:57.676Z,8.53
2018-08-28T14:26:27.547Z,10.00
2018-08-28T14:28:57.371Z,8.50
2018-08-28T14:31:27.184Z,9.60
2018-08-28T14:33:56.845Z,9.53
2018-08-28T14:36:27.181Z,11.77
2018-08-28T14:38:57.212Z,10.83
2018-08-28T14:41:27.097Z,10.20
2018-08-28T14:43:56.886Z,11.17
2018-08-28T14:46:27.443Z,14.37
2018-08-28T14:48:57.443Z,10.20
2018-08-28T14:51:27.263Z,9.17
2018-08-28T14:53:56.951Z,8.20
2018-08-28T14:56:27.272Z,9.77
2018-08-28T14:58:57.383Z,10.27
2018-08-28T15:01:27.377Z,11.03
2018-08-28T15:03:57.329Z,11.43
2018-08-28T15:06:27.287Z,9.20
2018-08-28T15:08:57.227Z,10.53
2018-08-28T15:11:27.241Z,9.00
2018-08-28T15:13:57.212Z,11.53
2018-08-28T15:16:26.942Z,8.53
2018-08-28T15:18:56.758Z,9.37
2018-08-28T15:21:26.420Z,10.80
2018-08-28T15:23:55.980Z,11.10
2018-08-28T15:26:25.684Z,9.70
2018-08-28T15:28:55.360Z,10.10
2018-08-28T15:31:24.995Z,8.30
2018-08-28T15:33:54.670Z,7.90
2018-08-28T15:36:24.257Z,11.07
2018-08-28T15:38:53.974Z,11.43
2018-08-28T15:41:23.686Z,9.20
2018-08-28T15:43:53.420Z,8.80
2018-08-28T15:46:23.319Z,10.70
2018-08-28T15:48:53.155Z,11.20
2018-08-28T15:51:23.358Z,10.17
2018-08-28T15:53:53.068Z,8.47
2018-08-28T15:56:22.767Z,9.70
2018-08-28T15:58:52.658Z,10.27
2018-08-28T16:01:23.051Z,10.77
2018-08-28T16:03:52.714Z,11.00
2018-08-28T16:06:22.735Z,8.30
2018-08-28T16:08:52.390Z,9.77
2018-08-28T16:11:22.214Z,8.47
2018-08-28T16:13:51.899Z,11.70
2018-08-28T16:16:21.536Z,10.30
2018-08-28T16:18:51.176Z,8.67
2018-08-28T16:21:20.897Z,10.37
2018-08-28T16:23:50.913Z,8.43
2018-08-28T16:26:20.731Z,9.17
2018-08-28T16:28:50.313Z,8.93
2018-08-28T16:31:20.051Z,9.67
2018-08-28T16:33:49.640Z,9.07
2018-08-28T16:36:19.571Z,9.00
2018-08-28T16:38:49.251Z,9.77
2018-08-28T16:41:18.962Z,11.30
2018-08-28T16:43:48.749Z,8.63
2018-08-28T16:46:18.558Z,10.30
2018-08-28T16:48:48.182Z,9.43
2018-08-28T16:51:17.844Z,9.23
2018-08-28T16:53:47.536Z,9.10
2018-08-28T16:56:17.344Z,10.43
2018-08-28T16:58:47.911Z,11.20
2018-08-28T17:01:17.606Z,9.20
2018-08-28T17:03:47.387Z,8.60
2018-08-28T17:06:17.066Z,8.43
2018-08-28T17:08:46.881Z,11.00
2018-08-28T17:11:16.519Z,9.97
2018-08-28T17:13:46.080Z,10.63
2018-08-28T17:16:15.816Z,10.03
2018-08-28T17:18:45.632Z,7.43
2018-08-28T17:21:15.328Z,10.60
2018-08-28T17:23:45.060Z,9.00
2018-08-28T17:26:14.828Z,9.93
2018-08-28T17:28:44.393Z,8.27
2018-08-28T17:31:14.124Z,14.40
2018-08-28T17:33:43.980Z,10.43
2018-08-28T17:36:13.883Z,10.33
2018-08-28T17:38:43.498Z,10.87
2018-08-28T17:41:13.204Z,11.00
2018-08-28T17:43:42.971Z,11.27
2018-08-28T17:46:12.599Z,10.37
2018-08-28T17:48:42.282Z,10.57
2018-08-28T17:51:12.169Z,10.70
2018-08-28T17:53:41.951Z,8.83
2018-08-28T17:56:11.731Z,9.60
2018-08-28T17:58:41.605Z,10.20
2018-08-28T18:01:11.323Z,9.70
2018-08-28T18:03:41.012Z,10.70
2018-08-28T18:06:10.735Z,11.17
2018-08-28T18:08:41.445Z,10.57
2018-08-28T18:11:11.091Z,10.00
2018-08-28T18:13:41.851Z,10.03
2018-08-28T18:16:11.411Z,9.37
2018-08-28T18:18:41.231Z,10.30
2018-08-28T18:21:11.142Z,10.50
2018-08-28T18:23:40.943Z,9.60
2018-08-28T18:26:10.500Z,9.33
2018-08-28T18:28:40.272Z,10.17
2018-08-28T18:31:09.884Z,12.07
2018-08-28T18:33:39.487Z,9.33
2018-08-28T18:36:09.247Z,8.87
2018-08-28T18:38:39.115Z,13.00
2018-08-28T18:41:08.769Z,11.80
2018-08-28T18:43:38.629Z,9.20
2018-08-28T18:46:08.365Z,10.47
2018-08-28T18:48:37.931Z,9.77
2018-08-28T18:51:07.941Z,9.00
2018-08-28T18:53:38.166Z,10.00
2018-08-28T18:56:08.028Z,11.03
2018-08-28T18:58:37.912Z,8.97
2018-08-28T19:01:07.995Z,8.87
2018-08-28T19:03:38.410Z,10.60
2018-08-28T19:06:08.013Z,12.50
2018-08-28T19:08:37.613Z,9.90
2018-08-28T19:11:07.531Z,11.13
2018-08-28T19:13:37.459Z,8.27
2018-08-28T19:16:07.393Z,13.40
2018-08-28T19:18:36.964Z,10.43
2018-08-28T19:21:06.541Z,10.70
2018-08-28T19:23:36.122Z,11.03
2018-08-28T19:26:05.758Z,10.63
2018-08-28T19:28:35.630Z,11.77
2018-08-28T19:31:05.580Z,11.93
2018-08-28T19:33:35.218Z,9.57
2018-08-28T19:36:04.892Z,10.67
2018-08-28T19:38:34.471Z,10.70
2018-08-28T19:41:04.093Z,10.90
2018-08-28T19:43:33.954Z,10.03
2018-08-28T19:46:03.828Z,10.33
2018-08-28T19:48:33.542Z,10.53
2018-08-28T19:51:03.320Z,10.70
2018-08-28T19:53:32.919Z,10.00
2018-08-28T19:56:03.105Z,9.80
2018-08-28T19:58:32.742Z,11.60
2018-08-28T20:01:02.573Z,10.90
2018-08-28T20:03:32.247Z,13.17
2018-08-28T20:06:02.099Z,11.27
2018-08-28T20:08:31.779Z,11.37
2018-08-28T20:11:01.687Z,11.00
2018-08-28T20:13:31.429Z,10.83
2018-08-28T20:16:01.128Z,10.03
2018-08-28T20:18:30.749Z,13.17
2018-08-28T20:21:00.528Z,11.33
2018-08-28T20:23:32.003Z,11.00
2018-08-28T20:26:01.687Z,11.87
2018-08-28T20:28:31.328Z,10.27
2018-08-28T20:31:01.016Z,10.80
2018-08-28T20:33:30.765Z,11.77
2018-08-28T20:36:00.326Z,14.63
2018-08-28T20:38:30.084Z,10.17
2018-08-28T20:40:59.963Z,10.77
2018-08-28T20:43:29.877Z,10.00
2018-08-28T20:45:59.700Z,11.63
2018-08-28T20:48:29.321Z,12.83
2018-08-28T20:50:58.875Z,9.50
2018-08-28T20:53:28.739Z,12.03
2018-08-28T20:55:58.632Z,12.13
2018-08-28T20:58:28.237Z,11.10
2018-08-28T21:00:57.837Z,9.77
2018-08-28T21:03:27.453Z,11.83
2018-08-28T21:05:57.204Z,10.90
2018-08-28T21:08:26.901Z,10.43
2018-08-28T21:10:56.589Z,15.00
2018-08-28T21:13:26.170Z,13.60
2018-08-28T21:15:56.087Z,11.60
2018-08-28T21:18:25.701Z,13.57
2018-08-28T21:20:55.436Z,9.40
2018-08-28T21:23:25.235Z,11.60
2018-08-28T21:25:55.034Z,11.37
2018-08-28T21:28:24.721Z,11.67
2018-08-28T21:30:54.454Z,11.63
2018-08-28T21:33:24.163Z,10.83
2018-08-28T21:35:53.896Z,10.53
2018-08-28T21:38:23.983Z,12.17
2018-08-28T21:40:53.687Z,11.23
2018-08-28T21:43:23.369Z,14.30
2018-08-28T21:45:53.185Z,11.57
2018-08-28T21:48:22.819Z,11.00
2018-08-28T21:50:52.544Z,11.77
2018-08-28T21:53:22.144Z,11.80
2018-08-28T21:55:51.831Z,9.73
2018-08-28T21:58:21.475Z,10.83
2018-08-28T22:00:56.236Z,10.73
2018-08-28T22:03:25.976Z,10.90
2018-08-28T22:05:55.583Z,10.77
2018-08-28T22:08:25.230Z,11.70
2018-08-28T22:10:55.064Z,12.23
2018-08-28T22:13:24.851Z,12.60
2018-08-28T22:15:55.038Z,13.10
2018-08-28T22:18:25.394Z,11.03
2018-08-28T22:20:55.067Z,11.60
2018-08-28T22:23:25.558Z,10.63
2018-08-28T22:25:55.287Z,11.13
2018-08-28T22:28:24.896Z,13.23
2018-08-28T22:30:54.428Z,12.33
2018-08-28T22:33:24.252Z,15.53
2018-08-28T22:35:53.952Z,12.20
2018-08-28T22:38:23.567Z,12.87
2018-08-28T22:40:53.232Z,12.07
2018-08-28T22:43:23.915Z,12.40
2018-08-28T22:45:53.688Z,12.83
2018-08-28T22:48:23.317Z,10.53
2018-08-28T22:50:53.042Z,13.60
2018-08-28T22:53:22.714Z,12.80
2018-08-28T22:55:52.340Z,11.10
2018-08-28T22:58:22.157Z,10.57
2018-08-28T23:00:52.047Z,10.30
2018-08-28T23:03:22.068Z,12.77
2018-08-28T23:05:51.820Z,13.03
2018-08-28T23:08:21.404Z,14.40
2018-08-28T23:10:51.127Z,11.80
2018-08-28T23:13:20.702Z,14.00
2018-08-28T23:15:50.424Z,12.43
2018-08-28T23:18:20.467Z,13.37
2018-08-28T23:20:50.227Z,12.00
2018-08-28T23:23:19.968Z,15.23
2018-08-28T23:25:49.946Z,14.03
2018-08-28T23:28:19.664Z,12.63
2018-08-28T23:30:49.376Z,11.27
2018-08-28T23:33:19.023Z,13.27
2018-08-28T23:35:48.532Z,15.00
2018-08-28T23:38:18.215Z,11.77
2018-08-28T23:40:47.903Z,15.00
2018-08-28T23:43:17.524Z,13.87
2018-08-28T23:45:47.223Z,13.47
2018-08-28T23:48:16.958Z,11.03
2018-08-28T23:50:46.659Z,12.53
2018-08-28T23:53:16.415Z,11.80
2018-08-28T23:55:46.154Z,13.47
2018-08-28T23:58:15.907Z,13.27
